sensor_id;sensor_type;location;lat;lon;timestamp;temperature;humidity
6538;DHT22;3302;52.508;13.454;2023-03-01T00:01:59;1.30;76.80
6538;DHT22;3302;52.508;13.454;2023-03-01T00:04:25;1.20;77.00
6538;DHT22;3302;52.508;13.454;2023-03-01T00:06:51;1.20;76.90
6538;DHT22;3302;52.508;13.454;2023-03-01T00:09:17;1.20;77.20
6538;DHT22;3302;52.508;13.454;2023-03-01T00:11:43;1.10;77.30
6538;DHT22;3302;52.508;13.454;2023-03-01T00:14:09;1.10;78.00
6538;DHT22;3302;52.508;13.454;2023-03-01T00:16:42;1.10;77.90
6538;DHT22;3302;52.508;13.454;2023-03-01T00:19:15;1.10;77.90
6538;DHT22;3302;52.508;13.454;2023-03-01T00:21:41;1.10;77.80
6538;DHT22;3302;52.508;13.454;2023-03-01T00:24:08;1.10;78.30
6538;DHT22;3302;52.508;13.454;2023-03-01T00:26:34;1.00;78.60
6538;DHT22;3302;52.508;13.454;2023-03-01T00:28:59;1.10;78.60
6538;DHT22;3302;52.508;13.454;2023-03-01T00:31:29;1.10;80.00
6538;DHT22;3302;52.508;13.454;2023-03-01T00:33:57;1.10;80.00
6538;DHT22;3302;52.508;13.454;2023-03-01T00:36:24;1.10;80.30
6538;DHT22;3302;52.508;13.454;2023-03-01T00:38:51;1.10;80.40
6538;DHT22;3302;52.508;13.454;2023-03-01T00:41:18;1.10;80.60
6538;DHT22;3302;52.508;13.454;2023-03-01T00:43:44;1.10;80.40
6538;DHT22;3302;52.508;13.454;2023-03-01T00:46:18;1.10;80.90
6538;DHT22;3302;52.508;13.454;2023-03-01T00:48:45;1.00;81.30
6538;DHT22;3302;52.508;13.454;2023-03-01T00:51:20;1.00;81.80
6538;DHT22;3302;52.508;13.454;2023-03-01T00:53:46;1.00;82.70
6538;DHT22;3302;52.508;13.454;2023-03-01T00:56:14;1.00;81.50
6538;DHT22;3302;52.508;13.454;2023-03-01T00:58:40;1.10;81.30
6538;DHT22;3302;52.508;13.454;2023-03-01T01:01:09;1.10;81.10
6538;DHT22;3302;52.508;13.454;2023-03-01T01:03:54;1.10;81.40
6538;DHT22;3302;52.508;13.454;2023-03-01T01:06:28;1.10;81.70
6538;DHT22;3302;52.508;13.454;2023-03-01T01:08:55;1.10;81.30
6538;DHT22;3302;52.508;13.454;2023-03-01T01:11:24;1.00;80.70
6538;DHT22;3302;52.508;13.454;2023-03-01T01:13:51;1.10;80.40
6538;DHT22;3302;52.508;13.454;2023-03-01T01:16:18;0.90;80.30
6538;DHT22;3302;52.508;13.454;2023-03-01T01:18:45;1.00;80.40
6538;DHT22;3302;52.508;13.454;2023-03-01T01:21:14;1.00;80.70
6538;DHT22;3302;52.508;13.454;2023-03-01T01:23:40;1.00;81.10
6538;DHT22;3302;52.508;13.454;2023-03-01T01:26:41;1.00;81.70
6538;DHT22;3302;52.508;13.454;2023-03-01T01:29:01;0.90;81.40
6538;DHT22;3302;52.508;13.454;2023-03-01T01:31:27;1.00;81.20
6538;DHT22;3302;52.508;13.454;2023-03-01T01:33:54;1.00;81.30
6538;DHT22;3302;52.508;13.454;2023-03-01T01:36:20;0.90;81.60
6538;DHT22;3302;52.508;13.454;2023-03-01T01:38:46;1.00;82.60
6538;DHT22;3302;52.508;13.454;2023-03-01T01:41:13;0.90;81.70
6538;DHT22;3302;52.508;13.454;2023-03-01T01:43:42;0.90;81.80
6538;DHT22;3302;52.508;13.454;2023-03-01T01:46:28;0.90;81.50
6538;DHT22;3302;52.508;13.454;2023-03-01T01:48:57;0.80;81.70
6538;DHT22;3302;52.508;13.454;2023-03-01T01:51:28;0.90;81.90
6538;DHT22;3302;52.508;13.454;2023-03-01T01:54:08;0.80;81.70
6538;DHT22;3302;52.508;13.454;2023-03-01T01:56:36;0.80;81.90
6538;DHT22;3302;52.508;13.454;2023-03-01T01:59:03;0.80;82.10
6538;DHT22;3302;52.508;13.454;2023-03-01T02:01:29;0.80;81.90
6538;DHT22;3302;52.508;13.454;2023-03-01T02:03:55;0.80;81.80
6538;DHT22;3302;52.508;13.454;2023-03-01T02:06:39;0.80;81.80
6538;DHT22;3302;52.508;13.454;2023-03-01T02:09:11;0.70;82.10
6538;DHT22;3302;52.508;13.454;2023-03-01T02:11:38;0.70;82.40
6538;DHT22;3302;52.508;13.454;2023-03-01T02:14:04;0.70;83.60
6538;DHT22;3302;52.508;13.454;2023-03-01T02:16:30;0.60;82.50
6538;DHT22;3302;52.508;13.454;2023-03-01T02:18:57;0.60;82.90
6538;DHT22;3302;52.508;13.454;2023-03-01T02:21:37;0.50;83.10
6538;DHT22;3302;52.508;13.454;2023-03-01T02:26:52;0.60;83.30
6538;DHT22;3302;52.508;13.454;2023-03-01T02:29:21;0.60;83.30
6538;DHT22;3302;52.508;13.454;2023-03-01T02:31:47;0.60;83.60
6538;DHT22;3302;52.508;13.454;2023-03-01T02:34:18;0.60;83.50
6538;DHT22;3302;52.508;13.454;2023-03-01T02:36:51;0.60;84.00
6538;DHT22;3302;52.508;13.454;2023-03-01T02:39:22;0.50;84.20
6538;DHT22;3302;52.508;13.454;2023-03-01T02:41:54;0.50;84.40
6538;DHT22;3302;52.508;13.454;2023-03-01T02:44:21;0.40;84.70
6538;DHT22;3302;52.508;13.454;2023-03-01T02:46:52;0.30;85.10
6538;DHT22;3302;52.508;13.454;2023-03-01T02:54:48;0.20;85.70
6538;DHT22;3302;52.508;13.454;2023-03-01T02:57:16;0.10;86.00
6538;DHT22;3302;52.508;13.454;2023-03-01T02:59:43;0.10;86.70
6538;DHT22;3302;52.508;13.454;2023-03-01T03:02:26;0.20;87.70
6538;DHT22;3302;52.508;13.454;2023-03-01T03:05:13;0.10;87.20
6538;DHT22;3302;52.508;13.454;2023-03-01T03:07:42;0.10;88.90
6538;DHT22;3302;52.508;13.454;2023-03-01T03:10:20;0.10;90.40
6538;DHT22;3302;52.508;13.454;2023-03-01T03:12:50;0.10;90.60
6538;DHT22;3302;52.508;13.454;2023-03-01T03:15:17;0.10;91.00
6538;DHT22;3302;52.508;13.454;2023-03-01T03:17:43;-0.20;92.20
6538;DHT22;3302;52.508;13.454;2023-03-01T03:20:11;-0.10;92.30
6538;DHT22;3302;52.508;13.454;2023-03-01T03:22:40;-0.20;91.80
6538;DHT22;3302;52.508;13.454;2023-03-01T03:25:07;-0.20;91.60
6538;DHT22;3302;52.508;13.454;2023-03-01T03:27:38;-0.10;91.80
6538;DHT22;3302;52.508;13.454;2023-03-01T03:30:06;-0.30;92.20
6538;DHT22;3302;52.508;13.454;2023-03-01T03:32:35;-0.40;92.90
6538;DHT22;3302;52.508;13.454;2023-03-01T03:35:03;-0.30;92.80
6538;DHT22;3302;52.508;13.454;2023-03-01T03:37:41;-0.20;92.70
6538;DHT22;3302;52.508;13.454;2023-03-01T03:40:26;-0.10;92.60
6538;DHT22;3302;52.508;13.454;2023-03-01T03:42:52;-0.50;93.20
6538;DHT22;3302;52.508;13.454;2023-03-01T03:45:18;-0.60;94.60
6538;DHT22;3302;52.508;13.454;2023-03-01T03:47:44;-0.70;95.20
6538;DHT22;3302;52.508;13.454;2023-03-01T03:50:15;-0.80;95.60
6538;DHT22;3302;52.508;13.454;2023-03-01T03:52:41;-0.70;95.50
6538;DHT22;3302;52.508;13.454;2023-03-01T03:55:09;-0.60;95.50
6538;DHT22;3302;52.508;13.454;2023-03-01T03:57:42;-0.50;95.20
6538;DHT22;3302;52.508;13.454;2023-03-01T04:00:11;-0.70;95.60
6538;DHT22;3302;52.508;13.454;2023-03-01T04:02:42;-0.70;95.90
6538;DHT22;3302;52.508;13.454;2023-03-01T04:05:09;-0.80;96.00
6538;DHT22;3302;52.508;13.454;2023-03-01T04:07:36;-0.60;96.00
6538;DHT22;3302;52.508;13.454;2023-03-01T04:10:09;-0.60;95.60
6538;DHT22;3302;52.508;13.454;2023-03-01T04:12:35;-0.60;95.30
6538;DHT22;3302;52.508;13.454;2023-03-01T04:15:03;-0.60;95.40
6538;DHT22;3302;52.508;13.454;2023-03-01T04:17:42;-0.60;95.30
6538;DHT22;3302;52.508;13.454;2023-03-01T04:20:10;-0.60;95.20
6538;DHT22;3302;52.508;13.454;2023-03-01T04:22:37;-0.60;94.90
6538;DHT22;3302;52.508;13.454;2023-03-01T04:25:03;-0.60;94.80
6538;DHT22;3302;52.508;13.454;2023-03-01T04:27:35;-0.60;94.30
6538;DHT22;3302;52.508;13.454;2023-03-01T04:30:03;-0.60;93.90
6538;DHT22;3302;52.508;13.454;2023-03-01T04:32:29;-0.60;93.90
6538;DHT22;3302;52.508;13.454;2023-03-01T04:34:54;-0.70;94.10
6538;DHT22;3302;52.508;13.454;2023-03-01T04:37:20;-0.80;94.20
6538;DHT22;3302;52.508;13.454;2023-03-01T04:39:46;-0.70;94.10
6538;DHT22;3302;52.508;13.454;2023-03-01T04:42:13;-0.70;93.80
6538;DHT22;3302;52.508;13.454;2023-03-01T04:44:39;-0.70;93.40
6538;DHT22;3302;52.508;13.454;2023-03-01T04:47:05;-0.70;93.30
6538;DHT22;3302;52.508;13.454;2023-03-01T04:49:31;-0.70;93.10
6538;DHT22;3302;52.508;13.454;2023-03-01T04:51:57;-0.60;93.10
6538;DHT22;3302;52.508;13.454;2023-03-01T04:54:31;-0.60;92.70
6538;DHT22;3302;52.508;13.454;2023-03-01T04:56:58;-0.60;92.60
6538;DHT22;3302;52.508;13.454;2023-03-01T04:59:24;-0.60;92.70
6538;DHT22;3302;52.508;13.454;2023-03-01T05:01:54;-0.60;92.70
6538;DHT22;3302;52.508;13.454;2023-03-01T05:04:24;-0.60;92.70
6538;DHT22;3302;52.508;13.454;2023-03-01T05:06:50;-0.60;92.90
6538;DHT22;3302;52.508;13.454;2023-03-01T05:09:16;-0.70;93.20
6538;DHT22;3302;52.508;13.454;2023-03-01T05:11:42;-1.00;93.70
6538;DHT22;3302;52.508;13.454;2023-03-01T05:14:09;-1.00;94.10
6538;DHT22;3302;52.508;13.454;2023-03-01T05:16:35;-0.90;93.90
6538;DHT22;3302;52.508;13.454;2023-03-01T05:19:03;-0.90;93.80
6538;DHT22;3302;52.508;13.454;2023-03-01T05:21:41;-1.00;94.10
6538;DHT22;3302;52.508;13.454;2023-03-01T05:24:26;-1.00;94.20
6538;DHT22;3302;52.508;13.454;2023-03-01T05:26:52;-1.00;94.10
6538;DHT22;3302;52.508;13.454;2023-03-01T05:29:20;-1.00;94.20
6538;DHT22;3302;52.508;13.454;2023-03-01T05:31:54;-0.90;94.00
6538;DHT22;3302;52.508;13.454;2023-03-01T05:34:32;-1.00;94.50
6538;DHT22;3302;52.508;13.454;2023-03-01T05:36:58;-1.00;94.30
6538;DHT22;3302;52.508;13.454;2023-03-01T05:39:26;-1.10;94.70
6538;DHT22;3302;52.508;13.454;2023-03-01T05:41:53;-0.90;94.60
6538;DHT22;3302;52.508;13.454;2023-03-01T05:44:20;-0.90;94.40
6538;DHT22;3302;52.508;13.454;2023-03-01T05:46:46;-0.90;94.40
6538;DHT22;3302;52.508;13.454;2023-03-01T05:49:12;-0.80;94.20
6538;DHT22;3302;52.508;13.454;2023-03-01T05:51:42;-0.90;94.50
6538;DHT22;3302;52.508;13.454;2023-03-01T05:54:09;-0.90;94.60
6538;DHT22;3302;52.508;13.454;2023-03-01T05:56:35;-0.90;94.50
6538;DHT22;3302;52.508;13.454;2023-03-01T05:59:03;-0.80;94.50
6538;DHT22;3302;52.508;13.454;2023-03-01T06:01:29;-0.90;94.50
6538;DHT22;3302;52.508;13.454;2023-03-01T06:03:55;-0.90;94.80
6538;DHT22;3302;52.508;13.454;2023-03-01T06:06:22;-0.90;94.90
6538;DHT22;3302;52.508;13.454;2023-03-01T06:08:50;-1.00;95.20
6538;DHT22;3302;52.508;13.454;2023-03-01T06:11:16;-1.00;95.50
6538;DHT22;3302;52.508;13.454;2023-03-01T06:13:43;-1.10;95.90
6538;DHT22;3302;52.508;13.454;2023-03-01T06:16:09;-1.10;96.20
6538;DHT22;3302;52.508;13.454;2023-03-01T06:18:35;-1.00;95.90
6538;DHT22;3302;52.508;13.454;2023-03-01T06:21:01;-0.90;96.00
6538;DHT22;3302;52.508;13.454;2023-03-01T06:23:27;-1.00;96.10
6538;DHT22;3302;52.508;13.454;2023-03-01T06:25:53;-1.10;96.40
6538;DHT22;3302;52.508;13.454;2023-03-01T06:28:19;-1.10;96.70
6538;DHT22;3302;52.508;13.454;2023-03-01T06:30:44;-1.00;96.60
6538;DHT22;3302;52.508;13.454;2023-03-01T06:33:10;-1.00;96.30
6538;DHT22;3302;52.508;13.454;2023-03-01T06:35:36;-0.90;96.50
6538;DHT22;3302;52.508;13.454;2023-03-01T06:38:03;-0.80;96.20
6538;DHT22;3302;52.508;13.454;2023-03-01T06:40:30;-0.70;96.40
6538;DHT22;3302;52.508;13.454;2023-03-01T06:42:57;-0.70;96.10
6538;DHT22;3302;52.508;13.454;2023-03-01T06:45:23;-0.60;95.80
6538;DHT22;3302;52.508;13.454;2023-03-01T06:47:50;-0.60;95.70
6538;DHT22;3302;52.508;13.454;2023-03-01T06:50:17;-0.60;95.50
6538;DHT22;3302;52.508;13.454;2023-03-01T06:52:43;-0.50;95.70
6538;DHT22;3302;52.508;13.454;2023-03-01T06:55:11;-0.60;95.60
6538;DHT22;3302;52.508;13.454;2023-03-01T06:57:37;-0.50;95.50
6538;DHT22;3302;52.508;13.454;2023-03-01T07:00:05;-0.50;95.40
6538;DHT22;3302;52.508;13.454;2023-03-01T07:02:31;-0.40;95.50
6538;DHT22;3302;52.508;13.454;2023-03-01T07:04:57;-0.30;95.10
6538;DHT22;3302;52.508;13.454;2023-03-01T07:07:23;-0.30;95.10
6538;DHT22;3302;52.508;13.454;2023-03-01T07:09:49;-0.20;95.10
6538;DHT22;3302;52.508;13.454;2023-03-01T07:12:16;-0.20;95.00
6538;DHT22;3302;52.508;13.454;2023-03-01T07:14:43;-0.10;94.90
6538;DHT22;3302;52.508;13.454;2023-03-01T07:17:09;0.00;94.70
6538;DHT22;3302;52.508;13.454;2023-03-01T07:19:35;0.10;94.80
6538;DHT22;3302;52.508;13.454;2023-03-01T07:22:01;0.10;94.70
6538;DHT22;3302;52.508;13.454;2023-03-01T07:24:27;0.20;94.70
6538;DHT22;3302;52.508;13.454;2023-03-01T07:26:52;0.20;94.50
6538;DHT22;3302;52.508;13.454;2023-03-01T07:29:19;0.20;94.80
6538;DHT22;3302;52.508;13.454;2023-03-01T07:31:45;0.30;94.70
6538;DHT22;3302;52.508;13.454;2023-03-01T07:34:11;0.50;94.50
6538;DHT22;3302;52.508;13.454;2023-03-01T07:36:37;0.60;94.10
6538;DHT22;3302;52.508;13.454;2023-03-01T07:39:03;0.60;94.00
6538;DHT22;3302;52.508;13.454;2023-03-01T07:41:29;0.60;94.20
6538;DHT22;3302;52.508;13.454;2023-03-01T07:43:55;0.70;94.40
6538;DHT22;3302;52.508;13.454;2023-03-01T07:46:21;0.80;93.90
6538;DHT22;3302;52.508;13.454;2023-03-01T07:48:47;0.90;92.80
6538;DHT22;3302;52.508;13.454;2023-03-01T07:51:13;1.00;92.80
6538;DHT22;3302;52.508;13.454;2023-03-01T07:53:39;1.10;92.90
6538;DHT22;3302;52.508;13.454;2023-03-01T07:56:10;1.20;92.40
6538;DHT22;3302;52.508;13.454;2023-03-01T07:58:38;1.30;92.20
6538;DHT22;3302;52.508;13.454;2023-03-01T08:01:09;1.40;91.50
6538;DHT22;3302;52.508;13.454;2023-03-01T08:03:36;1.50;91.20
6538;DHT22;3302;52.508;13.454;2023-03-01T08:06:05;1.60;89.80
6538;DHT22;3302;52.508;13.454;2023-03-01T08:08:32;1.60;89.50
6538;DHT22;3302;52.508;13.454;2023-03-01T08:10:59;1.70;89.90
6538;DHT22;3302;52.508;13.454;2023-03-01T08:13:25;1.60;85.40
6538;DHT22;3302;52.508;13.454;2023-03-01T08:15:51;1.70;84.30
6538;DHT22;3302;52.508;13.454;2023-03-01T08:18:18;1.70;83.20
6538;DHT22;3302;52.508;13.454;2023-03-01T08:20:44;1.80;83.10
6538;DHT22;3302;52.508;13.454;2023-03-01T08:23:10;1.90;81.80
6538;DHT22;3302;52.508;13.454;2023-03-01T08:25:36;2.00;80.90
6538;DHT22;3302;52.508;13.454;2023-03-01T08:28:02;2.10;79.40
6538;DHT22;3302;52.508;13.454;2023-03-01T08:30:28;2.20;78.40
6538;DHT22;3302;52.508;13.454;2023-03-01T08:32:54;2.30;77.90
6538;DHT22;3302;52.508;13.454;2023-03-01T08:35:20;2.50;77.20
6538;DHT22;3302;52.508;13.454;2023-03-01T08:37:47;2.70;76.40
6538;DHT22;3302;52.508;13.454;2023-03-01T08:40:13;2.70;76.70
6538;DHT22;3302;52.508;13.454;2023-03-01T08:42:40;2.70;76.50
6538;DHT22;3302;52.508;13.454;2023-03-01T08:45:07;2.70;76.30
6538;DHT22;3302;52.508;13.454;2023-03-01T08:47:33;2.90;76.10
6538;DHT22;3302;52.508;13.454;2023-03-01T08:50:00;3.00;75.40
6538;DHT22;3302;52.508;13.454;2023-03-01T08:52:26;3.00;74.80
6538;DHT22;3302;52.508;13.454;2023-03-01T08:54:52;3.00;75.00
6538;DHT22;3302;52.508;13.454;2023-03-01T08:57:18;3.20;75.00
6538;DHT22;3302;52.508;13.454;2023-03-01T08:59:44;3.20;74.10
6538;DHT22;3302;52.508;13.454;2023-03-01T09:02:16;3.30;74.20
6538;DHT22;3302;52.508;13.454;2023-03-01T09:04:42;3.30;73.20
6538;DHT22;3302;52.508;13.454;2023-03-01T09:07:09;3.30;73.30
6538;DHT22;3302;52.508;13.454;2023-03-01T09:09:35;3.30;72.70
6538;DHT22;3302;52.508;13.454;2023-03-01T09:12:01;3.50;72.40
6538;DHT22;3302;52.508;13.454;2023-03-01T09:14:27;3.50;71.50
6538;DHT22;3302;52.508;13.454;2023-03-01T09:16:53;3.60;71.20
6538;DHT22;3302;52.508;13.454;2023-03-01T09:19:19;3.70;70.40
6538;DHT22;3302;52.508;13.454;2023-03-01T09:21:45;3.70;69.90
6538;DHT22;3302;52.508;13.454;2023-03-01T09:24:22;3.80;69.00
6538;DHT22;3302;52.508;13.454;2023-03-01T09:26:49;3.90;68.60
6538;DHT22;3302;52.508;13.454;2023-03-01T09:29:15;4.00;67.80
6538;DHT22;3302;52.508;13.454;2023-03-01T09:31:42;3.90;67.20
6538;DHT22;3302;52.508;13.454;2023-03-01T09:34:09;4.10;67.40
6538;DHT22;3302;52.508;13.454;2023-03-01T09:36:35;4.00;65.80
6538;DHT22;3302;52.508;13.454;2023-03-01T09:39:01;4.20;65.80
6538;DHT22;3302;52.508;13.454;2023-03-01T09:47:25;4.60;63.60
6538;DHT22;3302;52.508;13.454;2023-03-01T09:50:15;4.80;62.30
6538;DHT22;3302;52.508;13.454;2023-03-01T09:53:07;4.90;60.90
6538;DHT22;3302;52.508;13.454;2023-03-01T09:58:49;5.00;60.20
6538;DHT22;3302;52.508;13.454;2023-03-01T10:01:32;5.00;58.60
6538;DHT22;3302;52.508;13.454;2023-03-01T10:04:28;4.80;59.30
6538;DHT22;3302;52.508;13.454;2023-03-01T10:07:30;4.80;59.40
6538;DHT22;3302;52.508;13.454;2023-03-01T10:09:58;5.00;59.30
6538;DHT22;3302;52.508;13.454;2023-03-01T10:12:35;5.00;59.20
6538;DHT22;3302;52.508;13.454;2023-03-01T10:17:44;5.10;60.00
6538;DHT22;3302;52.508;13.454;2023-03-01T10:20:36;5.00;57.80
6538;DHT22;3302;52.508;13.454;2023-03-01T10:23:08;5.10;58.10
6538;DHT22;3302;52.508;13.454;2023-03-01T10:28:57;5.30;58.80
6538;DHT22;3302;52.508;13.454;2023-03-01T10:31:46;5.70;58.20
6538;DHT22;3302;52.508;13.454;2023-03-01T10:34:14;5.70;57.80
6538;DHT22;3302;52.508;13.454;2023-03-01T10:36:41;5.60;57.50
6538;DHT22;3302;52.508;13.454;2023-03-01T10:39:19;5.70;57.00
6538;DHT22;3302;52.508;13.454;2023-03-01T10:42:00;5.60;55.80
6538;DHT22;3302;52.508;13.454;2023-03-01T10:44:47;5.80;56.00
6538;DHT22;3302;52.508;13.454;2023-03-01T10:47:25;5.90;55.50
6538;DHT22;3302;52.508;13.454;2023-03-01T10:52:34;5.90;55.30
6538;DHT22;3302;52.508;13.454;2023-03-01T10:57:44;6.30;54.80
6538;DHT22;3302;52.508;13.454;2023-03-01T11:00:19;6.30;52.80
6538;DHT22;3302;52.508;13.454;2023-03-01T11:02:50;6.40;53.30
6538;DHT22;3302;52.508;13.454;2023-03-01T11:05:23;6.20;51.70
6538;DHT22;3302;52.508;13.454;2023-03-01T11:08:03;6.20;50.90
6538;DHT22;3302;52.508;13.454;2023-03-01T11:10:34;6.30;51.80
6538;DHT22;3302;52.508;13.454;2023-03-01T11:13:18;6.30;51.40
6538;DHT22;3302;52.508;13.454;2023-03-01T11:16:02;6.20;51.20
6538;DHT22;3302;52.508;13.454;2023-03-01T11:18:30;6.40;51.40
6538;DHT22;3302;52.508;13.454;2023-03-01T11:20:56;6.50;49.40
6538;DHT22;3302;52.508;13.454;2023-03-01T11:23:24;6.30;46.90
6538;DHT22;3302;52.508;13.454;2023-03-01T11:25:59;6.30;46.30
6538;DHT22;3302;52.508;13.454;2023-03-01T11:28:28;6.30;44.10
6538;DHT22;3302;52.508;13.454;2023-03-01T11:31:05;6.30;41.90
6538;DHT22;3302;52.508;13.454;2023-03-01T11:36:16;6.60;41.90
6538;DHT22;3302;52.508;13.454;2023-03-01T11:38:42;6.70;41.50
6538;DHT22;3302;52.508;13.454;2023-03-01T11:41:18;6.70;40.50
6538;DHT22;3302;52.508;13.454;2023-03-01T11:54:30;6.60;43.40
6538;DHT22;3302;52.508;13.454;2023-03-01T12:08:43;6.90;39.60
6538;DHT22;3302;52.508;13.454;2023-03-01T12:17:39;7.20;40.30
6538;DHT22;3302;52.508;13.454;2023-03-01T12:33:39;6.90;38.80
6538;DHT22;3302;52.508;13.454;2023-03-01T12:39:04;7.30;40.00
6538;DHT22;3302;52.508;13.454;2023-03-01T12:49:45;7.00;39.90
6538;DHT22;3302;52.508;13.454;2023-03-01T12:55:02;7.00;38.70
6538;DHT22;3302;52.508;13.454;2023-03-01T13:00:49;7.10;39.50
6538;DHT22;3302;52.508;13.454;2023-03-01T13:03:29;7.30;38.90
6538;DHT22;3302;52.508;13.454;2023-03-01T13:06:23;7.50;39.30
6538;DHT22;3302;52.508;13.454;2023-03-01T13:09:02;7.30;39.70
6538;DHT22;3302;52.508;13.454;2023-03-01T13:11:30;7.30;39.30
6538;DHT22;3302;52.508;13.454;2023-03-01T13:16:47;7.40;39.00
6538;DHT22;3302;52.508;13.454;2023-03-01T13:19:25;7.30;38.50
6538;DHT22;3302;52.508;13.454;2023-03-01T13:21:53;7.30;38.20
6538;DHT22;3302;52.508;13.454;2023-03-01T13:24:33;7.30;37.00
6538;DHT22;3302;52.508;13.454;2023-03-01T13:29:54;7.40;37.60
6538;DHT22;3302;52.508;13.454;2023-03-01T13:32:29;7.20;37.20
6538;DHT22;3302;52.508;13.454;2023-03-01T13:37:37;7.20;37.90
6538;DHT22;3302;52.508;13.454;2023-03-01T13:42:55;7.30;37.10
6538;DHT22;3302;52.508;13.454;2023-03-01T13:48:22;7.30;36.60
6538;DHT22;3302;52.508;13.454;2023-03-01T13:50:51;7.30;37.00
6538;DHT22;3302;52.508;13.454;2023-03-01T13:53:20;7.20;37.90
6538;DHT22;3302;52.508;13.454;2023-03-01T13:56:14;7.20;38.30
6538;DHT22;3302;52.508;13.454;2023-03-01T13:58:50;7.20;38.40
6538;DHT22;3302;52.508;13.454;2023-03-01T14:01:29;7.20;39.90
6538;DHT22;3302;52.508;13.454;2023-03-01T14:03:55;7.30;38.80
6538;DHT22;3302;52.508;13.454;2023-03-01T14:06:30;7.40;36.60
6538;DHT22;3302;52.508;13.454;2023-03-01T14:09:24;7.40;36.70
6538;DHT22;3302;52.508;13.454;2023-03-01T14:11:59;7.30;37.20
6538;DHT22;3302;52.508;13.454;2023-03-01T14:19:48;7.30;35.60
6538;DHT22;3302;52.508;13.454;2023-03-01T14:22:24;7.40;36.50
6538;DHT22;3302;52.508;13.454;2023-03-01T14:24:58;7.40;37.20
6538;DHT22;3302;52.508;13.454;2023-03-01T14:27:32;7.40;37.50
6538;DHT22;3302;52.508;13.454;2023-03-01T14:30:01;7.30;38.50
6538;DHT22;3302;52.508;13.454;2023-03-01T14:32:28;7.50;39.20
6538;DHT22;3302;52.508;13.454;2023-03-01T14:34:55;7.50;40.00
6538;DHT22;3302;52.508;13.454;2023-03-01T14:37:30;7.50;40.20
6538;DHT22;3302;52.508;13.454;2023-03-01T14:39:58;7.60;41.00
6538;DHT22;3302;52.508;13.454;2023-03-01T14:42:28;7.60;41.30
6538;DHT22;3302;52.508;13.454;2023-03-01T14:44:56;7.60;39.80
6538;DHT22;3302;52.508;13.454;2023-03-01T14:47:34;7.70;40.90
6538;DHT22;3302;52.508;13.454;2023-03-01T14:52:50;7.90;41.50
6538;DHT22;3302;52.508;13.454;2023-03-01T14:55:24;8.00;42.40
6538;DHT22;3302;52.508;13.454;2023-03-01T14:57:51;7.90;42.30
6538;DHT22;3302;52.508;13.454;2023-03-01T15:00:27;8.10;41.90
6538;DHT22;3302;52.508;13.454;2023-03-01T15:02:55;8.50;42.60
6538;DHT22;3302;52.508;13.454;2023-03-01T15:05:41;8.40;42.20
6538;DHT22;3302;52.508;13.454;2023-03-01T15:08:17;8.70;42.20
6538;DHT22;3302;52.508;13.454;2023-03-01T15:10:56;9.30;41.40
6538;DHT22;3302;52.508;13.454;2023-03-01T15:13:25;9.70;41.00
6538;DHT22;3302;52.508;13.454;2023-03-01T15:15:51;9.70;40.50
6538;DHT22;3302;52.508;13.454;2023-03-01T15:18:26;9.60;39.70
6538;DHT22;3302;52.508;13.454;2023-03-01T15:20:53;10.00;38.70
6538;DHT22;3302;52.508;13.454;2023-03-01T15:23:25;10.10;38.80
6538;DHT22;3302;52.508;13.454;2023-03-01T15:25:53;9.60;40.30
6538;DHT22;3302;52.508;13.454;2023-03-01T15:28:25;10.10;39.20
6538;DHT22;3302;52.508;13.454;2023-03-01T15:31:18;9.90;39.40
6538;DHT22;3302;52.508;13.454;2023-03-01T15:33:45;9.90;39.70
6538;DHT22;3302;52.508;13.454;2023-03-01T15:39:02;9.30;39.70
6538;DHT22;3302;52.508;13.454;2023-03-01T15:41:48;8.70;39.90
6538;DHT22;3302;52.508;13.454;2023-03-01T15:44:16;8.80;41.00
6538;DHT22;3302;52.508;13.454;2023-03-01T15:46:46;8.90;41.30
6538;DHT22;3302;52.508;13.454;2023-03-01T15:49:35;9.00;41.60
6538;DHT22;3302;52.508;13.454;2023-03-01T15:52:03;8.80;41.70
6538;DHT22;3302;52.508;13.454;2023-03-01T15:54:29;8.90;42.20
6538;DHT22;3302;52.508;13.454;2023-03-01T15:56:55;8.70;43.60
6538;DHT22;3302;52.508;13.454;2023-03-01T15:59:21;8.60;44.00
6538;DHT22;3302;52.508;13.454;2023-03-01T16:01:48;8.50;43.00
6538;DHT22;3302;52.508;13.454;2023-03-01T16:04:16;8.40;42.90
6538;DHT22;3302;52.508;13.454;2023-03-01T16:06:49;8.30;43.20
6538;DHT22;3302;52.508;13.454;2023-03-01T16:09:24;8.10;43.50
6538;DHT22;3302;52.508;13.454;2023-03-01T16:11:51;7.90;43.80
6538;DHT22;3302;52.508;13.454;2023-03-01T16:14:17;8.00;44.50
6538;DHT22;3302;52.508;13.454;2023-03-01T16:16:44;7.90;44.10
6538;DHT22;3302;52.508;13.454;2023-03-01T16:19:10;7.80;44.40
6538;DHT22;3302;52.508;13.454;2023-03-01T16:21:37;7.90;44.70
6538;DHT22;3302;52.508;13.454;2023-03-01T16:24:03;7.80;44.80
6538;DHT22;3302;52.508;13.454;2023-03-01T16:26:29;7.70;44.80
6538;DHT22;3302;52.508;13.454;2023-03-01T16:28:56;7.50;45.70
6538;DHT22;3302;52.508;13.454;2023-03-01T16:31:23;7.70;46.20
6538;DHT22;3302;52.508;13.454;2023-03-01T16:33:49;7.60;46.00
6538;DHT22;3302;52.508;13.454;2023-03-01T16:36:18;7.60;46.30
6538;DHT22;3302;52.508;13.454;2023-03-01T16:38:44;7.60;46.70
6538;DHT22;3302;52.508;13.454;2023-03-01T16:41:15;7.50;46.80
6538;DHT22;3302;52.508;13.454;2023-03-01T16:43:42;7.40;47.20
6538;DHT22;3302;52.508;13.454;2023-03-01T16:46:23;7.40;47.60
6538;DHT22;3302;52.508;13.454;2023-03-01T16:48:49;7.40;48.00
6538;DHT22;3302;52.508;13.454;2023-03-01T16:51:16;7.30;48.10
6538;DHT22;3302;52.508;13.454;2023-03-01T16:53:42;7.30;48.40
6538;DHT22;3302;52.508;13.454;2023-03-01T16:56:10;7.30;48.70
6538;DHT22;3302;52.508;13.454;2023-03-01T16:58:36;7.20;49.40
6538;DHT22;3302;52.508;13.454;2023-03-01T17:01:18;7.20;49.20
6538;DHT22;3302;52.508;13.454;2023-03-01T17:03:45;7.10;49.60
6538;DHT22;3302;52.508;13.454;2023-03-01T17:06:14;7.00;50.20
6538;DHT22;3302;52.508;13.454;2023-03-01T17:08:40;7.00;50.40
6538;DHT22;3302;52.508;13.454;2023-03-01T17:11:12;6.90;50.70
6538;DHT22;3302;52.508;13.454;2023-03-01T17:13:39;6.90;50.90
6538;DHT22;3302;52.508;13.454;2023-03-01T17:16:07;6.90;51.30
6538;DHT22;3302;52.508;13.454;2023-03-01T17:18:33;6.90;51.60
6538;DHT22;3302;52.508;13.454;2023-03-01T17:21:00;6.80;52.00
6538;DHT22;3302;52.508;13.454;2023-03-01T17:23:28;6.70;52.60
6538;DHT22;3302;52.508;13.454;2023-03-01T17:25:54;6.60;52.70
6538;DHT22;3302;52.508;13.454;2023-03-01T17:28:25;6.60;53.40
6538;DHT22;3302;52.508;13.454;2023-03-01T17:30:51;6.60;53.60
6538;DHT22;3302;52.508;13.454;2023-03-01T17:33:18;6.50;53.80
6538;DHT22;3302;52.508;13.454;2023-03-01T17:35:44;6.50;53.90
6538;DHT22;3302;52.508;13.454;2023-03-01T17:38:15;6.50;54.20
6538;DHT22;3302;52.508;13.454;2023-03-01T17:40:41;6.40;54.50
6538;DHT22;3302;52.508;13.454;2023-03-01T17:43:08;6.40;54.40
6538;DHT22;3302;52.508;13.454;2023-03-01T17:45:37;6.40;54.80
6538;DHT22;3302;52.508;13.454;2023-03-01T17:48:04;6.30;55.10
6538;DHT22;3302;52.508;13.454;2023-03-01T17:50:30;6.40;55.10
6538;DHT22;3302;52.508;13.454;2023-03-01T17:52:56;6.30;55.70
6538;DHT22;3302;52.508;13.454;2023-03-01T17:55:23;6.30;55.80
6538;DHT22;3302;52.508;13.454;2023-03-01T17:57:49;6.30;56.30
6538;DHT22;3302;52.508;13.454;2023-03-01T18:00:16;6.10;56.60
6538;DHT22;3302;52.508;13.454;2023-03-01T18:02:43;6.00;56.80
6538;DHT22;3302;52.508;13.454;2023-03-01T18:05:09;6.00;57.20
6538;DHT22;3302;52.508;13.454;2023-03-01T18:07:36;6.10;56.90
6538;DHT22;3302;52.508;13.454;2023-03-01T18:10:02;6.10;57.50